createdAt,value
2019-03-08T00:01:50.250Z,70.30
2019-03-08T00:04:19.779Z,70.10
2019-03-08T00:06:49.253Z,69.60
2019-03-08T00:09:18.774Z,69.20
2019-03-08T00:11:48.262Z,69.10
2019-03-08T00:14:17.782Z,79.00
2019-03-08T00:16:47.467Z,81.10
2019-03-08T00:19:16.987Z,81.20
2019-03-08T00:21:46.473Z,69.20
2019-03-08T00:24:16.007Z,75.10
2019-03-08T00:26:45.490Z,69.50
2019-03-08T00:29:15.002Z,69.70
2019-03-08T00:31:44.492Z,69.80
2019-03-08T00:34:14.013Z,70.30
2019-03-08T00:36:43.514Z,70.60
2019-03-08T00:39:13.046Z,71.10
2019-03-08T00:41:42.546Z,71.80
2019-03-08T00:44:13.542Z,72.70
2019-03-08T00:46:43.066Z,73.30
2019-03-08T00:49:15.286Z,74.10
2019-03-08T00:51:44.785Z,75.00
2019-03-08T00:54:14.470Z,75.30
2019-03-08T00:56:44.166Z,76.40
2019-03-08T00:59:13.705Z,77.00
2019-03-08T01:01:43.185Z,78.10
2019-03-08T01:04:12.730Z,78.30
2019-03-08T01:06:42.213Z,79.00
2019-03-08T01:09:11.886Z,79.70
2019-03-08T01:11:41.577Z,80.20
2019-03-08T01:14:11.066Z,80.60
2019-03-08T01:16:40.596Z,80.60
2019-03-08T01:19:10.086Z,80.60
2019-03-08T01:21:39.616Z,80.50
2019-03-08T01:24:09.168Z,80.40
2019-03-08T01:26:38.690Z,80.30
2019-03-08T01:29:08.239Z,80.20
2019-03-08T01:31:37.794Z,84.10
2019-03-08T01:34:08.040Z,80.50
2019-03-08T01:36:37.563Z,80.60
2019-03-08T01:39:08.005Z,80.80
2019-03-08T01:41:39.666Z,90.40
2019-03-08T01:44:09.214Z,80.80
2019-03-08T01:46:38.747Z,80.80
2019-03-08T01:49:08.258Z,80.80
2019-03-08T01:51:38.001Z,80.80
2019-03-08T01:54:07.495Z,80.90
2019-03-08T01:56:37.030Z,81.50
2019-03-08T01:59:06.515Z,80.80
2019-03-08T02:01:36.121Z,80.80
2019-03-08T02:04:05.614Z,80.50
2019-03-08T02:06:35.218Z,80.40
2019-03-08T02:09:06.550Z,79.80
2019-03-08T02:11:40.593Z,80.10
2019-03-08T02:14:13.141Z,88.20
2019-03-08T02:16:42.963Z,86.10
2019-03-08T02:19:12.451Z,85.90
2019-03-08T02:24:11.093Z,82.20
2019-03-08T02:26:40.614Z,92.30
2019-03-08T02:29:10.197Z,89.80
2019-03-08T02:31:39.770Z,79.20
2019-03-08T02:34:09.254Z,91.30
2019-03-08T02:36:38.782Z,79.00
2019-03-08T02:39:09.514Z,86.60
2019-03-08T02:41:40.663Z,78.20
2019-03-08T02:44:10.558Z,78.80
2019-03-08T02:46:40.091Z,78.80
2019-03-08T02:49:09.574Z,78.80
2019-03-08T02:51:39.784Z,78.80
2019-03-08T02:54:12.247Z,79.00
2019-03-08T02:56:42.373Z,79.00
2019-03-08T02:59:11.882Z,78.70
2019-03-08T03:01:41.850Z,78.70
2019-03-08T03:04:11.341Z,77.90
2019-03-08T03:06:40.879Z,78.40
2019-03-08T03:09:13.059Z,78.10
2019-03-08T03:11:44.064Z,77.80
2019-03-08T03:14:13.553Z,77.70
2019-03-08T03:16:43.084Z,86.90
2019-03-08T03:19:12.750Z,77.50
2019-03-08T03:21:42.277Z,77.40
2019-03-08T03:26:43.938Z,76.70
2019-03-08T03:29:13.417Z,77.10
2019-03-08T03:31:42.951Z,77.10
2019-03-08T03:34:12.433Z,77.20
2019-03-08T03:36:42.276Z,90.80
2019-03-08T03:41:40.881Z,90.40
2019-03-08T03:44:10.726Z,76.80
2019-03-08T03:46:40.250Z,79.90
2019-03-08T03:49:10.355Z,80.30
2019-03-08T03:51:39.878Z,77.10
2019-03-08T03:54:09.354Z,77.10
2019-03-08T03:56:39.433Z,77.20
2019-03-08T03:59:08.922Z,77.40
2019-03-08T04:01:40.435Z,77.20
2019-03-08T04:04:10.155Z,77.90
2019-03-08T04:06:39.683Z,77.20
2019-03-08T04:09:13.491Z,77.20
2019-03-08T04:11:43.022Z,77.20
2019-03-08T04:14:12.513Z,77.10
2019-03-08T04:16:43.357Z,77.10
2019-03-08T04:19:12.882Z,83.30
2019-03-08T04:21:43.339Z,78.00
2019-03-08T04:24:12.877Z,76.80
2019-03-08T04:26:42.346Z,76.20
2019-03-08T04:29:12.350Z,76.20
2019-03-08T04:34:10.954Z,76.50
2019-03-08T04:36:40.494Z,77.30
2019-03-08T04:39:11.655Z,76.80
2019-03-08T04:41:41.154Z,91.40
2019-03-08T04:44:10.665Z,89.30
2019-03-08T04:46:40.155Z,77.60
2019-03-08T04:49:09.674Z,83.30
2019-03-08T04:51:39.154Z,77.50
2019-03-08T04:54:08.698Z,84.90
2019-03-08T04:59:07.781Z,96.00
2019-03-08T05:01:38.723Z,97.90
2019-03-08T05:04:08.247Z,94.90
2019-03-08T05:06:37.746Z,78.60
2019-03-08T05:09:08.718Z,80.50
2019-03-08T05:11:39.737Z,85.20
2019-03-08T05:14:09.934Z,92.10
2019-03-08T05:16:39.432Z,78.70
2019-03-08T05:19:08.984Z,78.80
2019-03-08T05:21:38.462Z,78.90
2019-03-08T05:24:08.374Z,79.00
2019-03-08T05:26:37.860Z,96.80
2019-03-08T05:29:07.410Z,84.60
2019-03-08T05:31:36.913Z,79.30
2019-03-08T05:34:06.437Z,79.50
2019-03-08T05:36:35.921Z,79.10
2019-03-08T05:39:08.701Z,78.80
2019-03-08T05:41:38.188Z,79.30
2019-03-08T05:44:07.729Z,79.20
2019-03-08T05:46:37.219Z,92.00
2019-03-08T05:49:06.754Z,79.00
2019-03-08T05:51:36.559Z,91.60
2019-03-08T05:54:07.239Z,77.90
2019-03-08T05:56:37.750Z,76.80
2019-03-08T05:59:07.284Z,75.40
2019-03-08T06:01:36.767Z,75.20
2019-03-08T06:04:06.306Z,75.90
2019-03-08T06:06:35.790Z,74.50
2019-03-08T06:09:07.431Z,74.40
2019-03-08T06:11:36.923Z,90.00
2019-03-08T06:14:06.462Z,74.10
2019-03-08T06:16:35.937Z,73.60
2019-03-08T06:19:05.675Z,70.20
2019-03-08T06:21:36.138Z,70.70
2019-03-08T06:24:05.757Z,69.30
2019-03-08T06:26:35.263Z,81.10
2019-03-08T06:29:04.967Z,66.70
2019-03-08T06:31:34.455Z,87.10
2019-03-08T06:34:04.146Z,66.90
2019-03-08T06:36:33.644Z,65.10
2019-03-08T06:39:03.174Z,64.00
2019-03-08T06:41:33.643Z,91.20
2019-03-08T06:44:03.180Z,86.10
2019-03-08T06:46:32.677Z,65.10
2019-03-08T06:51:31.290Z,63.20
2019-03-08T06:54:00.822Z,68.00
2019-03-08T06:56:30.357Z,63.40
2019-03-08T06:59:07.585Z,63.80
2019-03-08T07:01:37.766Z,62.40
2019-03-08T07:04:07.317Z,61.00
2019-03-08T07:06:36.823Z,59.80
2019-03-08T07:11:38.527Z,66.70
2019-03-08T07:14:08.365Z,61.00
2019-03-08T07:16:37.870Z,61.10
2019-03-08T07:19:07.425Z,60.20
2019-03-08T07:21:38.557Z,58.50
2019-03-08T07:24:15.786Z,89.50
2019-03-08T07:26:48.185Z,57.90
2019-03-08T07:29:25.234Z,57.40
2019-03-08T07:32:09.138Z,58.70
2019-03-08T07:34:49.438Z,57.70
2019-03-08T07:37:29.747Z,70.00
2019-03-08T07:40:00.979Z,57.80
2019-03-08T07:42:39.404Z,57.00
2019-03-08T07:45:26.456Z,58.50
2019-03-08T07:48:08.227Z,58.50
2019-03-08T07:50:55.690Z,62.20
2019-03-08T07:53:43.903Z,59.00
2019-03-08T07:56:18.048Z,58.10
2019-03-08T07:58:49.378Z,56.80
2019-03-08T08:01:23.556Z,67.10
2019-03-08T08:04:03.948Z,59.20
2019-03-08T08:06:35.370Z,55.30
2019-03-08T08:09:08.269Z,57.70
2019-03-08T08:11:43.461Z,55.50
2019-03-08T08:14:15.602Z,56.20
2019-03-08T08:16:47.446Z,55.80
2019-03-08T08:19:18.881Z,55.40
2019-03-08T08:22:04.905Z,58.10
2019-03-08T08:24:41.573Z,58.00
2019-03-08T08:27:25.636Z,55.60
2019-03-08T08:30:13.265Z,57.30
2019-03-08T08:32:53.862Z,56.20
2019-03-08T08:35:30.810Z,55.70
2019-03-08T08:38:03.120Z,55.70
2019-03-08T08:40:36.847Z,55.00
2019-03-08T08:43:23.982Z,54.80
2019-03-08T08:46:04.888Z,54.40
2019-03-08T08:48:47.942Z,57.30
2019-03-08T08:51:22.254Z,58.70
2019-03-08T08:53:53.535Z,59.00
2019-03-08T08:56:27.482Z,59.80
2019-03-08T08:58:58.921Z,60.50
2019-03-08T09:01:36.859Z,60.40
2019-03-08T09:04:25.643Z,60.80
2019-03-08T09:07:05.967Z,61.30
2019-03-08T09:09:40.513Z,60.70
2019-03-08T09:12:27.635Z,60.40
2019-03-08T09:15:16.749Z,60.30
2019-03-08T09:18:02.474Z,61.40
2019-03-08T09:20:49.579Z,61.70
2019-03-08T09:23:20.712Z,62.00
2019-03-08T09:25:57.966Z,62.00
2019-03-08T09:28:45.366Z,61.60
2019-03-08T09:31:22.709Z,61.90
2019-03-08T09:34:09.982Z,61.90
2019-03-08T09:36:41.080Z,62.00
2019-03-08T09:39:12.262Z,61.50
2019-03-08T09:41:43.403Z,61.60
2019-03-08T09:44:20.000Z,61.00
2019-03-08T09:47:07.174Z,61.10
2019-03-08T09:49:38.714Z,60.90
2019-03-08T09:52:09.846Z,60.70
2019-03-08T09:54:43.752Z,61.10
2019-03-08T09:57:14.874Z,60.70
2019-03-08T10:00:00.950Z,60.10
2019-03-08T10:02:47.002Z,58.90
2019-03-08T10:05:32.954Z,58.20
2019-03-08T10:08:04.130Z,58.70
2019-03-08T10:10:50.415Z,58.80
2019-03-08T10:13:21.552Z,59.30
2019-03-08T10:16:05.042Z,59.50
2019-03-08T10:18:41.939Z,59.70
2019-03-08T10:21:24.673Z,60.60
2019-03-08T10:23:55.805Z,60.30
2019-03-08T10:26:26.984Z,59.80
2019-03-08T10:29:07.150Z,61.20
2019-03-08T10:31:56.402Z,62.50
2019-03-08T10:34:27.542Z,63.60
2019-03-08T10:37:04.698Z,62.90
2019-03-08T10:39:44.790Z,62.80
2019-03-08T10:42:30.831Z,62.40
2019-03-08T10:45:01.971Z,62.70
2019-03-08T10:47:39.207Z,62.10
2019-03-08T10:50:12.550Z,62.40
2019-03-08T10:52:47.363Z,63.70
2019-03-08T10:55:24.279Z,65.80
2019-03-08T10:58:07.549Z,66.10
2019-03-08T11:00:44.742Z,67.40
2019-03-08T11:03:15.950Z,68.80
2019-03-08T11:05:49.816Z,69.20
2019-03-08T11:08:29.740Z,70.60
2019-03-08T11:11:06.059Z,71.30
2019-03-08T11:13:43.161Z,72.50
2019-03-08T11:16:27.805Z,72.00
2019-03-08T11:19:08.802Z,90.90
2019-03-08T11:21:43.309Z,72.20
2019-03-08T11:24:20.193Z,75.00
2019-03-08T11:26:54.087Z,73.90
2019-03-08T11:29:34.030Z,74.10
2019-03-08T11:32:22.936Z,73.80
2019-03-08T11:35:10.125Z,74.20
2019-03-08T11:37:41.251Z,74.00
2019-03-08T11:40:30.374Z,73.20
2019-03-08T11:43:10.581Z,82.80
2019-03-08T11:45:47.825Z,72.90
2019-03-08T11:48:27.823Z,73.00
2019-03-08T11:50:58.998Z,72.30
2019-03-08T11:53:30.129Z,70.70
2019-03-08T11:56:04.004Z,70.40
2019-03-08T11:58:37.834Z,84.70
2019-03-08T12:01:11.998Z,74.10
2019-03-08T12:03:58.019Z,68.00
2019-03-08T12:06:31.929Z,67.00
2019-03-08T12:09:13.171Z,66.60
2019-03-08T12:11:53.355Z,65.30
2019-03-08T12:14:24.484Z,65.20
2019-03-08T12:17:04.706Z,65.20
2019-03-08T12:19:38.649Z,65.20
2019-03-08T12:22:15.890Z,71.80
2019-03-08T12:24:55.901Z,64.50
2019-03-08T12:27:35.946Z,68.60
2019-03-08T12:30:19.356Z,66.40
2019-03-08T12:32:53.537Z,68.20
2019-03-08T12:35:41.813Z,68.60
2019-03-08T12:38:28.223Z,69.70
2019-03-08T12:41:15.734Z,66.60
2019-03-08T12:43:49.860Z,67.10
2019-03-08T12:46:21.030Z,66.50
2019-03-08T12:49:01.363Z,66.90
2019-03-08T12:51:32.497Z,66.10
2019-03-08T12:54:12.633Z,64.50
2019-03-08T12:56:43.758Z,64.70
2019-03-08T12:59:17.646Z,64.20
2019-03-08T13:02:06.694Z,64.20
2019-03-08T13:04:37.945Z,64.10
2019-03-08T13:07:17.921Z,64.20
2019-03-08T13:09:50.494Z,63.80
2019-03-08T13:12:20.922Z,63.90
2019-03-08T13:14:50.450Z,63.00
2019-03-08T13:17:20.134Z,63.50
2019-03-08T13:19:50.403Z,63.00
2019-03-08T13:22:21.685Z,62.70
2019-03-08T13:24:52.437Z,62.30
2019-03-08T13:27:22.061Z,61.50
2019-03-08T13:29:52.841Z,61.60
2019-03-08T13:32:23.079Z,62.30
2019-03-08T13:34:54.251Z,62.60
2019-03-08T13:37:24.709Z,67.10
2019-03-08T13:39:55.694Z,70.90
2019-03-08T13:42:25.186Z,69.20
2019-03-08T13:44:55.869Z,68.50
2019-03-08T13:47:26.399Z,67.90
2019-03-08T13:49:55.880Z,68.00
2019-03-08T13:52:26.183Z,67.40
2019-03-08T13:54:55.724Z,67.30
2019-03-08T13:57:25.318Z,68.00
2019-03-08T13:59:54.814Z,69.20
2019-03-08T14:02:24.343Z,69.40
2019-03-08T14:04:53.829Z,70.00
2019-03-08T14:07:23.371Z,70.30
2019-03-08T14:09:53.062Z,70.70
2019-03-08T14:12:22.590Z,69.90
2019-03-08T14:14:52.084Z,70.70
2019-03-08T14:17:21.613Z,71.40
2019-03-08T14:19:51.142Z,71.10
2019-03-08T14:22:20.682Z,71.40
2019-03-08T14:24:50.174Z,71.70
2019-03-08T14:27:21.246Z,71.60
2019-03-08T14:29:50.738Z,71.50
2019-03-08T14:32:21.242Z,71.60
2019-03-08T14:34:53.727Z,71.90
2019-03-08T14:37:23.985Z,72.00
2019-03-08T14:39:53.482Z,71.70
2019-03-08T14:42:27.355Z,72.40
2019-03-08T14:45:03.572Z,72.30
2019-03-08T14:47:35.547Z,71.90
2019-03-08T14:50:07.278Z,71.90
2019-03-08T14:52:36.815Z,72.60
2019-03-08T14:55:09.408Z,77.80
2019-03-08T14:57:38.949Z,77.80
2019-03-08T15:00:19.779Z,76.90
2019-03-08T15:02:49.333Z,75.70
2019-03-08T15:05:20.452Z,73.20
2019-03-08T15:07:51.943Z,71.70
2019-03-08T15:10:21.450Z,71.30
2019-03-08T15:12:52.998Z,70.50
2019-03-08T15:15:22.351Z,70.50
2019-03-08T15:17:55.372Z,69.80
2019-03-08T15:20:24.910Z,69.80
2019-03-08T15:22:54.449Z,69.50
2019-03-08T15:25:23.986Z,69.50
2019-03-08T15:27:53.471Z,69.20
2019-03-08T15:30:22.997Z,68.70
2019-03-08T15:32:52.487Z,68.30
2019-03-08T15:35:22.020Z,67.40
2019-03-08T15:37:51.502Z,67.10
2019-03-08T15:40:22.687Z,67.20
2019-03-08T15:42:52.253Z,91.10
2019-03-08T15:45:21.910Z,67.30
2019-03-08T15:47:51.462Z,67.30
2019-03-08T15:50:22.626Z,67.20
2019-03-08T15:52:52.097Z,66.50
2019-03-08T15:55:21.621Z,65.90
2019-03-08T15:57:51.110Z,65.00
2019-03-08T16:00:22.650Z,64.30
2019-03-08T16:02:54.517Z,64.70
2019-03-08T16:05:23.813Z,65.00
2019-03-08T16:07:57.714Z,65.60
2019-03-08T16:10:25.714Z,65.50
2019-03-08T16:12:55.266Z,65.70
2019-03-08T16:15:24.797Z,65.90
2019-03-08T16:17:54.334Z,66.20
2019-03-08T16:20:23.870Z,66.10
2019-03-08T16:22:53.366Z,66.40
2019-03-08T16:25:22.894Z,66.50
2019-03-08T16:27:52.454Z,66.40
2019-03-08T16:30:32.261Z,65.90
2019-03-08T16:33:20.757Z,65.70
2019-03-08T16:35:59.121Z,66.40
2019-03-08T16:38:46.364Z,65.70
2019-03-08T16:41:33.441Z,66.00
2019-03-08T16:44:07.309Z,66.00
2019-03-08T16:46:54.203Z,65.80
2019-03-08T16:49:31.114Z,65.70
2019-03-08T16:52:17.250Z,64.80
2019-03-08T16:54:51.237Z,64.80
2019-03-08T16:57:22.402Z,65.10
2019-03-08T17:00:05.612Z,65.20
2019-03-08T17:02:38.605Z,65.30
2019-03-08T17:05:10.359Z,65.40
2019-03-08T17:07:50.314Z,64.80
2019-03-08T17:10:36.314Z,65.10
2019-03-08T17:13:10.302Z,65.40
2019-03-08T17:15:41.432Z,65.70
2019-03-08T17:18:27.836Z,66.10
2019-03-08T17:21:04.697Z,66.30
2019-03-08T17:23:35.870Z,66.20
2019-03-08T17:26:07.001Z,66.60
2019-03-08T17:28:41.061Z,66.60
2019-03-08T17:31:21.510Z,66.60
2019-03-08T17:33:52.686Z,66.90
2019-03-08T17:36:23.810Z,66.80
2019-03-08T17:38:55.084Z,66.80
2019-03-08T17:41:26.220Z,66.50
2019-03-08T17:44:06.533Z,65.70
2019-03-08T17:46:55.527Z,65.50
2019-03-08T17:49:42.990Z,65.40
2019-03-08T17:52:16.856Z,65.20
2019-03-08T17:54:56.467Z,65.50
2019-03-08T17:57:36.565Z,65.70
2019-03-08T18:00:18.653Z,65.30
2019-03-08T18:02:52.701Z,65.00
2019-03-08T18:05:40.210Z,64.30
2019-03-08T18:08:28.274Z,63.50
2019-03-08T18:11:05.462Z,62.90
2019-03-08T18:13:51.478Z,62.00
2019-03-08T18:16:37.514Z,61.90
2019-03-08T18:19:09.112Z,62.10
2019-03-08T18:21:52.998Z,61.90
2019-03-08T18:24:39.319Z,62.00
2019-03-08T18:27:10.450Z,61.80
2019-03-08T18:29:41.801Z,61.60
2019-03-08T18:32:12.941Z,62.00
2019-03-08T18:34:55.994Z,62.50
2019-03-08T18:37:38.977Z,62.90
2019-03-08T18:40:25.717Z,63.40
2019-03-08T18:42:58.387Z,63.80
2019-03-08T18:45:45.619Z,64.20
2019-03-08T18:48:16.753Z,64.00
2019-03-08T18:50:53.434Z,64.20
2019-03-08T18:53:34.615Z,64.50
2019-03-08T18:56:05.790Z,64.90
2019-03-08T18:58:45.981Z,65.00
2019-03-08T19:01:25.895Z,65.70
2019-03-08T19:04:09.046Z,66.00
2019-03-08T19:06:48.454Z,66.20
2019-03-08T19:09:22.360Z,66.70
2019-03-08T19:11:53.592Z,66.90
2019-03-08T19:14:27.805Z,66.60
2019-03-08T19:17:15.002Z,66.40
2019-03-08T19:20:04.330Z,66.40
2019-03-08T19:22:43.915Z,66.70
2019-03-08T19:25:18.306Z,66.50
2019-03-08T19:27:52.440Z,66.60
2019-03-08T19:30:23.640Z,66.90
2019-03-08T19:33:13.174Z,66.90
2019-03-08T19:35:59.119Z,66.90
2019-03-08T19:38:42.354Z,66.90
2019-03-08T19:41:13.492Z,67.20
2019-03-08T19:44:00.532Z,66.90
2019-03-08T19:46:47.650Z,67.00
2019-03-08T19:49:21.966Z,66.90
2019-03-08T19:51:56.035Z,66.70
2019-03-08T19:54:30.118Z,67.10
2019-03-08T19:57:04.213Z,67.30
2019-03-08T19:59:47.182Z,67.70
2019-03-08T20:02:27.150Z,67.90
2019-03-08T20:05:00.998Z,68.00
2019-03-08T20:07:32.294Z,68.20
2019-03-08T20:10:03.463Z,68.40
2019-03-08T20:12:49.893Z,68.30
2019-03-08T20:15:24.149Z,68.60
2019-03-08T20:18:04.250Z,68.60
2019-03-08T20:20:51.514Z,68.90
2019-03-08T20:23:25.393Z,69.00
2019-03-08T20:25:59.353Z,68.90
2019-03-08T20:28:42.326Z,69.30
2019-03-08T20:31:29.814Z,69.70
2019-03-08T20:34:02.017Z,69.80
2019-03-08T20:36:37.326Z,70.00
2019-03-08T20:39:17.379Z,70.10
2019-03-08T20:42:00.562Z,70.20
2019-03-08T20:44:38.515Z,70.70
2019-03-08T20:47:15.669Z,71.10
2019-03-08T20:49:45.207Z,70.80
2019-03-08T20:52:14.995Z,70.80
2019-03-08T20:54:45.313Z,70.80
2019-03-08T20:57:14.849Z,70.50
2019-03-08T20:59:44.382Z,71.40
2019-03-08T21:02:13.938Z,70.90
2019-03-08T21:04:43.600Z,70.90
2019-03-08T21:07:13.087Z,71.00
2019-03-08T21:09:42.754Z,71.20
2019-03-08T21:12:14.974Z,71.20
2019-03-08T21:14:45.670Z,71.30
2019-03-08T21:17:20.577Z,71.50
2019-03-08T21:19:50.771Z,71.30
2019-03-08T21:22:20.262Z,71.30
2019-03-08T21:24:50.903Z,71.30
2019-03-08T21:27:20.381Z,71.70
2019-03-08T21:29:50.319Z,71.90
2019-03-08T21:32:19.814Z,72.20
2019-03-08T21:34:49.408Z,72.60
2019-03-08T21:37:18.913Z,72.90
2019-03-08T21:39:48.518Z,73.10
2019-03-08T21:42:18.318Z,73.10
2019-03-08T21:44:49.026Z,73.50
2019-03-08T21:47:18.530Z,73.80
2019-03-08T21:49:48.063Z,73.70
2019-03-08T21:52:17.634Z,73.90
2019-03-08T21:54:48.528Z,74.90
2019-03-08T21:57:18.028Z,74.10
2019-03-08T21:59:47.566Z,74.50
2019-03-08T22:02:18.136Z,74.70
2019-03-08T22:04:50.378Z,75.80
2019-03-08T22:07:19.930Z,75.70
2019-03-08T22:10:36.109Z,75.90
2019-03-08T22:13:05.554Z,76.30
2019-03-08T22:15:35.091Z,76.80
2019-03-08T22:18:04.866Z,77.10
2019-03-08T22:20:34.411Z,77.20
2019-03-08T22:23:03.899Z,77.40
2019-03-08T22:25:33.704Z,77.60
2019-03-08T22:28:04.322Z,77.60
2019-03-08T22:30:33.859Z,77.80
2019-03-08T22:33:03.347Z,77.70
2019-03-08T22:35:32.878Z,78.00
2019-03-08T22:38:02.368Z,78.30
2019-03-08T22:40:31.910Z,78.10
2019-03-08T22:43:01.404Z,78.10
2019-03-08T22:45:30.942Z,78.20
2019-03-08T22:48:00.598Z,78.10
2019-03-08T22:50:30.285Z,78.40
2019-03-08T22:52:59.762Z,78.70
2019-03-08T22:55:29.269Z,79.20
2019-03-08T22:57:58.806Z,79.70
2019-03-08T23:00:35.426Z,79.80
2019-03-08T23:03:06.582Z,80.20
2019-03-08T23:05:36.063Z,80.60
2019-03-08T23:08:05.591Z,80.90
2019-03-08T23:10:35.094Z,81.00
2019-03-08T23:13:04.966Z,81.20
2019-03-08T23:15:35.414Z,81.10
2019-03-08T23:18:04.950Z,81.30
2019-03-08T23:20:34.465Z,81.40
2019-03-08T23:23:04.977Z,81.50
2019-03-08T23:25:34.462Z,81.80
2019-03-08T23:28:17.346Z,81.90
2019-03-08T23:30:48.550Z,81.90
2019-03-08T23:33:18.085Z,81.80
2019-03-08T23:35:48.542Z,81.80
2019-03-08T23:38:18.066Z,81.50
2019-03-08T23:40:47.554Z,81.70
2019-03-08T23:43:17.091Z,81.70
2019-03-08T23:45:46.573Z,82.00
2019-03-08T23:48:16.104Z,82.40
2019-03-08T23:50:45.592Z,82.60
2019-03-08T23:53:15.117Z,82.80
2019-03-08T23:55:44.648Z,82.90
2019-03-08T23:58:14.199Z,82.80
